createdAt,value
2023-03-13T00:01:37.802Z,100068.38
2023-03-13T00:04:06.058Z,100067.63
2023-03-13T00:06:43.372Z,100069.17
2023-03-13T00:09:12.779Z,100074.58
2023-03-13T00:11:44.353Z,100076.70
2023-03-13T00:14:15.181Z,100080.70
2023-03-13T00:16:43.497Z,100080.59
2023-03-13T00:19:12.754Z,100075.29
2023-03-13T00:21:43.692Z,100078.57
2023-03-13T00:24:17.600Z,100080.58
2023-03-13T00:26:45.870Z,100080.98
2023-03-13T00:29:13.846Z,100081.96
2023-03-13T00:31:47.692Z,100087.84
2023-03-13T00:34:17.771Z,100091.31
2023-03-13T00:36:46.619Z,100087.64
2023-03-13T00:39:15.842Z,100088.86
2023-03-13T00:41:46.407Z,100090.88
2023-03-13T00:44:14.841Z,100092.73
2023-03-13T00:46:43.226Z,100090.65
2023-03-13T00:49:11.418Z,100093.26
2023-03-13T00:51:42.689Z,100097.27
2023-03-13T00:54:11.061Z,100099.52
2023-03-13T00:56:42.310Z,100096.50
2023-03-13T00:59:10.384Z,100100.55
2023-03-13T01:01:38.636Z,100101.18
2023-03-13T01:04:08.581Z,100103.48
2023-03-13T01:06:40.856Z,100103.83
2023-03-13T01:09:10.634Z,100101.23
2023-03-13T01:11:40.570Z,100102.65
2023-03-13T01:14:11.801Z,100097.63
2023-03-13T01:16:47.731Z,100097.31
2023-03-13T01:19:16.749Z,100099.73
2023-03-13T01:21:47.035Z,100095.78
2023-03-13T01:24:15.241Z,100099.15
2023-03-13T01:26:50.802Z,100100.86
2023-03-13T01:29:20.392Z,100097.48
2023-03-13T01:31:49.213Z,100104.61
2023-03-13T01:34:23.107Z,100099.79
2023-03-13T01:36:54.398Z,100103.32
2023-03-13T01:39:22.619Z,100107.10
2023-03-13T01:41:50.801Z,100110.82
2023-03-13T01:44:24.466Z,100113.04
2023-03-13T01:46:53.609Z,100118.95
2023-03-13T01:49:33.440Z,100125.39
2023-03-13T01:52:08.696Z,100131.95
2023-03-13T01:55:04.523Z,100137.42
2023-03-13T01:57:43.175Z,100138.72
2023-03-13T02:00:18.497Z,100144.38
2023-03-13T02:02:50.785Z,100152.12
2023-03-13T02:05:21.279Z,100155.48
2023-03-13T02:07:53.714Z,100161.82
2023-03-13T02:10:22.320Z,100168.02
2023-03-13T02:12:51.739Z,100172.20
2023-03-13T02:15:22.626Z,100173.05
2023-03-13T02:17:51.350Z,100177.23
2023-03-13T02:20:27.112Z,100179.41
2023-03-13T02:23:27.722Z,100180.94
2023-03-13T02:25:56.329Z,100184.27
2023-03-13T02:28:35.347Z,100187.89
2023-03-13T02:31:07.062Z,100188.03
2023-03-13T02:33:38.776Z,100191.11
2023-03-13T02:36:10.627Z,100193.13
2023-03-13T02:38:52.106Z,100190.19
2023-03-13T02:41:20.194Z,100192.13
2023-03-13T02:43:48.382Z,100189.63
2023-03-13T02:46:18.591Z,100192.84
2023-03-13T02:48:55.255Z,100195.16
2023-03-13T02:51:33.431Z,100198.71
2023-03-13T02:54:04.002Z,100200.74
2023-03-13T02:56:34.155Z,100200.48
2023-03-13T02:59:02.254Z,100200.82
2023-03-13T03:01:32.927Z,100201.14
2023-03-13T03:04:01.043Z,100204.76
2023-03-13T03:06:36.116Z,100213.23
2023-03-13T03:09:05.168Z,100211.34
2023-03-13T03:11:35.239Z,100212.02
2023-03-13T03:14:07.229Z,100216.52
2023-03-13T03:16:38.888Z,100222.09
2023-03-13T03:19:08.580Z,100225.39
2023-03-13T03:21:38.113Z,100232.84
2023-03-13T03:24:06.770Z,100229.58
2023-03-13T03:26:35.326Z,100233.06
2023-03-13T03:29:05.486Z,100229.09
2023-03-13T03:31:37.043Z,100232.92
2023-03-13T03:34:05.582Z,100240.30
2023-03-13T03:36:33.702Z,100245.33
2023-03-13T03:39:02.545Z,100245.59
2023-03-13T03:41:31.754Z,100248.96
2023-03-13T03:43:59.968Z,100255.33
2023-03-13T03:46:33.649Z,100256.34
2023-03-13T03:49:02.056Z,100261.20
2023-03-13T03:51:30.275Z,100260.79
2023-03-13T03:53:58.453Z,100268.41
2023-03-13T03:56:26.629Z,100267.34
2023-03-13T03:58:56.548Z,100267.08
2023-03-13T04:01:47.846Z,100276.60
2023-03-13T04:04:20.734Z,100281.47
2023-03-13T04:06:53.050Z,100286.23
2023-03-13T04:09:21.343Z,100286.43
2023-03-13T04:11:55.414Z,100290.45
2023-03-13T04:14:25.511Z,100293.91
2023-03-13T04:16:53.816Z,100301.66
2023-03-13T04:19:22.087Z,100312.07
2023-03-13T04:21:50.763Z,100316.45
2023-03-13T04:24:20.513Z,100314.29
2023-03-13T04:26:49.023Z,100313.91
2023-03-13T04:29:17.252Z,100319.52
2023-03-13T04:32:11.530Z,100325.98
2023-03-13T04:35:11.574Z,100329.65
2023-03-13T04:38:11.972Z,100338.70
2023-03-13T04:40:58.414Z,100336.86
2023-03-13T04:43:49.157Z,100340.11
2023-03-13T04:46:37.702Z,100339.55
2023-03-13T04:49:29.562Z,100344.84
2023-03-13T04:52:22.408Z,100351.08
2023-03-13T04:55:14.744Z,100361.76
2023-03-13T04:57:52.545Z,100365.39
2023-03-13T05:00:50.172Z,100370.60
2023-03-13T05:03:29.546Z,100373.05
2023-03-13T05:06:17.868Z,100372.73
2023-03-13T05:09:24.303Z,100373.98
2023-03-13T05:12:15.077Z,100378.21
2023-03-13T05:15:08.006Z,100372.85
2023-03-13T05:18:04.572Z,100373.20
2023-03-13T05:21:06.227Z,100377.71
2023-03-13T05:23:54.461Z,100371.00
2023-03-13T05:26:37.178Z,100364.76
2023-03-13T05:29:32.757Z,100368.24
2023-03-13T05:32:30.620Z,100376.08
2023-03-13T05:35:15.352Z,100375.91
2023-03-13T05:37:59.800Z,100378.09
2023-03-13T05:40:51.204Z,100381.77
2023-03-13T05:43:38.448Z,100384.42
2023-03-13T05:46:12.579Z,100388.36
2023-03-13T05:48:57.396Z,100395.27
2023-03-13T05:51:44.540Z,100394.02
2023-03-13T05:54:31.871Z,100394.50
2023-03-13T05:57:23.448Z,100405.05
2023-03-13T06:00:09.524Z,100404.50
2023-03-13T06:02:57.625Z,100407.99
2023-03-13T06:05:32.327Z,100416.27
2023-03-13T06:08:03.158Z,100412.63
2023-03-13T06:10:32.580Z,100417.08
2023-03-13T06:13:13.661Z,100413.20
2023-03-13T06:15:53.872Z,100416.79
2023-03-13T06:18:43.047Z,100418.15
2023-03-13T06:21:11.223Z,100419.60
2023-03-13T06:23:39.552Z,100418.95
2023-03-13T06:26:07.829Z,100420.94
2023-03-13T06:28:39.095Z,100425.84
2023-03-13T06:31:08.406Z,100426.80
2023-03-13T06:33:37.437Z,100431.10
2023-03-13T06:36:06.910Z,100432.49
2023-03-13T06:38:35.458Z,100433.77
2023-03-13T06:41:03.956Z,100438.27
2023-03-13T06:43:32.740Z,100439.73
2023-03-13T06:46:07.964Z,100438.91
2023-03-13T06:48:38.844Z,100442.80
2023-03-13T06:51:11.761Z,100445.87
2023-03-13T06:53:41.856Z,100448.60
2023-03-13T06:56:10.140Z,100443.29
2023-03-13T06:58:38.210Z,100446.09
2023-03-13T07:01:11.296Z,100449.35
2023-03-13T07:03:39.809Z,100449.88
2023-03-13T07:06:08.450Z,100450.21
2023-03-13T07:08:36.929Z,100459.20
2023-03-13T07:11:07.267Z,100460.93
2023-03-13T07:13:37.476Z,100466.48
2023-03-13T07:16:12.994Z,100467.61
2023-03-13T07:18:47.447Z,100468.94
2023-03-13T07:21:15.723Z,100465.33
2023-03-13T07:23:45.983Z,100471.83
2023-03-13T07:26:15.330Z,100476.05
2023-03-13T07:28:44.480Z,100474.09
2023-03-13T07:31:16.550Z,100478.05
2023-03-13T07:33:46.077Z,100475.63
2023-03-13T07:36:16.796Z,100475.92
2023-03-13T07:38:48.539Z,100474.06
2023-03-13T07:41:17.077Z,100474.36
2023-03-13T07:43:45.365Z,100472.57
2023-03-13T07:46:18.888Z,100471.33
2023-03-13T07:48:48.034Z,100468.01
2023-03-13T07:51:33.526Z,100466.55
2023-03-13T07:54:06.970Z,100469.35
2023-03-13T07:56:36.026Z,100470.31
2023-03-13T07:59:04.748Z,100468.66
2023-03-13T08:01:33.976Z,100470.61
2023-03-13T08:04:02.671Z,100466.50
2023-03-13T08:06:33.928Z,100463.20
2023-03-13T08:09:02.858Z,100465.58
2023-03-13T08:11:34.238Z,100469.83
2023-03-13T08:14:03.378Z,100473.21
2023-03-13T08:16:34.667Z,100477.70
2023-03-13T08:19:05.850Z,100482.65
2023-03-13T08:21:35.481Z,100481.86
2023-03-13T08:24:06.906Z,100483.23
2023-03-13T08:26:41.979Z,100476.92
2023-03-13T08:30:33.484Z,100485.81
2023-03-13T08:33:01.512Z,100482.18
2023-03-13T08:35:30.603Z,100482.77
2023-03-13T08:37:59.282Z,100485.40
2023-03-13T08:40:27.325Z,100483.04
2023-03-13T08:42:58.039Z,100478.41
2023-03-13T08:45:26.135Z,100489.91
2023-03-13T08:47:54.297Z,100495.91
2023-03-13T08:50:24.444Z,100493.02
2023-03-13T08:52:52.887Z,100488.27
2023-03-13T08:55:20.912Z,100483.18
2023-03-13T08:57:48.827Z,100478.11
2023-03-13T09:00:18.776Z,100482.09
2023-03-13T09:02:47.069Z,100486.86
2023-03-13T09:05:15.329Z,100489.29
2023-03-13T09:07:43.567Z,100491.07
2023-03-13T09:10:12.704Z,100488.19
2023-03-13T09:12:41.763Z,100473.08
2023-03-13T09:15:15.729Z,100473.73
2023-03-13T09:17:44.995Z,100471.07
2023-03-13T09:20:13.150Z,100467.98
2023-03-13T09:22:42.726Z,100457.78
2023-03-13T09:25:11.507Z,100452.77
2023-03-13T09:27:40.925Z,100447.41
2023-03-13T09:30:10.107Z,100445.52
2023-03-13T09:32:38.160Z,100459.31
2023-03-13T09:35:07.945Z,100457.30
2023-03-13T09:37:37.056Z,100452.44
2023-03-13T09:40:08.528Z,100452.84
2023-03-13T09:42:52.807Z,100446.06
2023-03-13T09:45:36.072Z,100444.55
2023-03-13T09:48:34.024Z,100446.18
2023-03-13T09:51:13.704Z,100448.36
2023-03-13T09:54:03.563Z,100449.33
2023-03-13T09:56:37.438Z,100445.60
2023-03-13T09:59:32.602Z,100442.52
2023-03-13T10:02:01.875Z,100436.36
2023-03-13T10:04:41.178Z,100440.91
2023-03-13T10:07:12.595Z,100442.86
2023-03-13T10:09:42.580Z,100435.11
2023-03-13T10:12:18.503Z,100420.98
2023-03-13T10:15:05.550Z,100425.80
2023-03-13T10:17:39.084Z,100413.92
2023-03-13T10:20:28.024Z,100411.73
2023-03-13T10:23:14.412Z,100409.02
2023-03-13T10:25:42.605Z,100412.58
2023-03-13T10:28:15.607Z,100407.05
2023-03-13T10:30:47.770Z,100407.48
2023-03-13T10:33:25.996Z,100400.86
2023-03-13T10:36:10.911Z,100402.77
2023-03-13T10:38:46.799Z,100398.14
2023-03-13T10:41:26.135Z,100393.54
2023-03-13T10:44:15.387Z,100388.21
2023-03-13T10:46:46.470Z,100393.58
2023-03-13T10:49:20.185Z,100389.16
2023-03-13T10:51:50.972Z,100386.55
2023-03-13T10:54:24.157Z,100390.20
2023-03-13T10:57:09.729Z,100382.42
2023-03-13T10:59:40.937Z,100381.81
2023-03-13T11:02:18.928Z,100376.09
2023-03-13T11:04:49.648Z,100370.05
2023-03-13T11:07:36.237Z,100361.65
2023-03-13T11:10:27.301Z,100353.61
2023-03-13T11:13:04.157Z,100346.25
2023-03-13T11:15:50.664Z,100346.39
2023-03-13T11:18:46.014Z,100338.86
2023-03-13T11:21:20.437Z,100328.98
2023-03-13T11:23:53.675Z,100328.27
2023-03-13T11:26:35.325Z,100333.11
2023-03-13T11:29:27.386Z,100331.77
2023-03-13T11:32:00.746Z,100328.45
2023-03-13T11:34:44.429Z,100316.13
2023-03-13T11:37:16.365Z,100313.85
2023-03-13T11:40:10.146Z,100309.83
2023-03-13T11:42:57.450Z,100306.06
2023-03-13T11:45:39.653Z,100304.33
2023-03-13T11:48:09.798Z,100305.90
2023-03-13T11:50:52.757Z,100299.37
2023-03-13T11:53:39.919Z,100300.45
2023-03-13T11:56:17.606Z,100296.10
2023-03-13T11:59:24.817Z,100302.11
2023-03-13T12:01:59.570Z,100295.33
2023-03-13T12:04:44.369Z,100296.05
2023-03-13T12:07:34.539Z,100289.04
2023-03-13T12:10:13.812Z,100293.98
2023-03-13T12:12:56.850Z,100286.66
2023-03-13T12:15:43.549Z,100281.14
2023-03-13T12:18:25.147Z,100276.44
2023-03-13T12:21:04.659Z,100270.19
2023-03-13T12:23:37.438Z,100267.02
2023-03-13T12:26:21.106Z,100264.09
2023-03-13T12:29:27.079Z,100265.97
2023-03-13T12:32:00.371Z,100259.83
2023-03-13T12:35:06.902Z,100260.71
2023-03-13T12:37:55.193Z,100271.54
2023-03-13T12:40:28.586Z,100275.45
2023-03-13T12:43:08.614Z,100271.67
2023-03-13T12:45:39.089Z,100273.92
2023-03-13T12:48:26.934Z,100270.66
2023-03-13T12:51:13.590Z,100266.55
2023-03-13T12:53:50.507Z,100271.61
2023-03-13T12:56:36.272Z,100273.39
2023-03-13T12:59:07.393Z,100270.33
2023-03-13T13:02:03.804Z,100273.45
2023-03-13T13:04:33.837Z,100265.36
2023-03-13T13:07:04.050Z,100265.84
2023-03-13T13:09:37.462Z,100266.73
2023-03-13T13:12:21.497Z,100268.58
2023-03-13T13:14:49.444Z,100262.75
2023-03-13T13:17:39.108Z,100260.89
2023-03-13T13:20:31.100Z,100256.09
2023-03-13T13:23:26.580Z,100252.11
2023-03-13T13:25:56.079Z,100252.67
2023-03-13T13:28:35.143Z,100257.98
2023-03-13T13:31:03.583Z,100252.77
2023-03-13T13:33:38.152Z,100251.61
2023-03-13T13:36:09.505Z,100242.87
2023-03-13T13:38:42.753Z,100242.48
2023-03-13T13:41:11.660Z,100239.95
2023-03-13T13:43:42.105Z,100247.66
2023-03-13T13:46:30.058Z,100243.06
2023-03-13T13:49:08.777Z,100228.88
2023-03-13T13:51:41.075Z,100225.08
2023-03-13T13:54:12.817Z,100217.00
2023-03-13T13:56:50.241Z,100220.14
2023-03-13T13:59:22.405Z,100220.30
2023-03-13T14:02:21.032Z,100210.42
2023-03-13T14:05:06.534Z,100203.88
2023-03-13T14:07:41.640Z,100204.42
2023-03-13T14:10:34.402Z,100202.84
2023-03-13T14:13:11.273Z,100211.63
2023-03-13T14:15:46.293Z,100210.23
2023-03-13T14:18:23.029Z,100218.33
2023-03-13T14:21:01.093Z,100219.66
2023-03-13T14:23:46.110Z,100226.49
2023-03-13T14:26:22.482Z,100215.80
2023-03-13T14:28:54.495Z,100211.66
2023-03-13T14:31:33.411Z,100213.48
2023-03-13T14:34:08.317Z,100211.66
2023-03-13T14:37:17.589Z,100216.16
2023-03-13T14:39:49.385Z,100214.84
2023-03-13T14:42:18.644Z,100211.79
2023-03-13T14:44:49.271Z,100204.73
2023-03-13T14:47:25.691Z,100200.56
2023-03-13T14:50:04.988Z,100203.66
2023-03-13T14:52:34.103Z,100197.09
2023-03-13T14:55:10.565Z,100196.95
2023-03-13T14:57:41.089Z,100188.23
2023-03-13T15:00:35.725Z,100186.38
2023-03-13T15:03:17.125Z,100174.41
2023-03-13T15:06:15.026Z,100174.54
2023-03-13T15:08:48.108Z,100169.42
2023-03-13T15:11:26.316Z,100166.30
2023-03-13T15:13:55.308Z,100163.95
2023-03-13T15:16:24.046Z,100160.96
2023-03-13T15:18:52.754Z,100158.52
2023-03-13T15:21:22.632Z,100155.91
2023-03-13T15:23:53.322Z,100160.79
2023-03-13T15:26:22.725Z,100156.30
2023-03-13T15:28:51.132Z,100154.13
2023-03-13T15:31:19.182Z,100153.10
2023-03-13T15:33:47.454Z,100156.10
2023-03-13T15:36:21.501Z,100147.83
2023-03-13T15:38:51.821Z,100150.50
2023-03-13T15:41:23.131Z,100154.55
2023-03-13T15:43:52.831Z,100159.95
2023-03-13T15:46:21.303Z,100153.52
2023-03-13T15:48:51.464Z,100158.67
2023-03-13T15:51:21.054Z,100158.55
2023-03-13T15:53:49.638Z,100161.70
2023-03-13T15:56:20.010Z,100165.85
2023-03-13T15:58:51.588Z,100162.98
2023-03-13T16:01:23.270Z,100157.67
2023-03-13T16:03:51.771Z,100155.94
2023-03-13T16:06:28.331Z,100158.31
2023-03-13T16:09:01.603Z,100151.79
2023-03-13T16:11:29.946Z,100148.10
2023-03-13T16:14:00.540Z,100150.86
2023-03-13T16:16:31.314Z,100145.39
2023-03-13T16:19:00.720Z,100143.55
2023-03-13T16:21:30.376Z,100142.55
2023-03-13T16:23:59.305Z,100147.49
2023-03-13T16:26:29.299Z,100145.62
2023-03-13T16:28:58.258Z,100143.90
2023-03-13T16:31:28.584Z,100145.12
2023-03-13T16:33:58.026Z,100139.77
2023-03-13T16:36:30.565Z,100136.93
2023-03-13T16:38:59.902Z,100136.29
2023-03-13T16:41:28.679Z,100132.63
2023-03-13T16:43:57.497Z,100132.69
2023-03-13T16:46:36.086Z,100134.95
2023-03-13T16:49:04.474Z,100129.91
2023-03-13T16:51:34.284Z,100132.31
2023-03-13T16:54:03.657Z,100132.58
2023-03-13T16:56:40.169Z,100131.35
2023-03-13T16:59:15.383Z,100130.28
2023-03-13T17:01:44.788Z,100129.14
2023-03-13T17:04:13.395Z,100126.86
2023-03-13T17:06:42.596Z,100127.35
2023-03-13T17:09:12.793Z,100124.00
2023-03-13T17:11:44.172Z,100122.55
2023-03-13T17:14:13.689Z,100124.00
2023-03-13T17:16:43.162Z,100125.61
2023-03-13T17:19:14.770Z,100127.76
2023-03-13T17:21:42.788Z,100124.69
2023-03-13T17:24:10.877Z,100125.02
2023-03-13T17:26:42.349Z,100128.59
2023-03-13T17:29:17.026Z,100122.89
2023-03-13T17:31:45.134Z,100120.98
2023-03-13T17:34:16.930Z,100119.75
2023-03-13T17:36:45.776Z,100111.38
2023-03-13T17:39:14.752Z,100105.38
2023-03-13T17:41:42.865Z,100103.30
2023-03-13T17:44:11.172Z,100101.27
2023-03-13T17:46:47.019Z,100099.55
2023-03-13T17:49:17.282Z,100093.81
2023-03-13T17:51:46.442Z,100099.48
2023-03-13T17:54:16.002Z,100101.67
2023-03-13T17:56:44.773Z,100101.02
2023-03-13T17:59:17.517Z,100103.23
2023-03-13T18:01:48.343Z,100094.74
2023-03-13T18:04:21.360Z,100099.00
2023-03-13T18:06:50.544Z,100100.27
2023-03-13T18:09:20.817Z,100101.67
2023-03-13T18:11:50.048Z,100102.20
2023-03-13T18:14:19.620Z,100102.40
2023-03-13T18:16:50.749Z,100100.11
2023-03-13T18:19:22.400Z,100100.23
2023-03-13T18:21:54.301Z,100093.36
2023-03-13T18:24:28.090Z,100094.75
2023-03-13T18:26:57.179Z,100094.55
2023-03-13T18:29:29.472Z,100095.80
2023-03-13T18:31:59.010Z,100096.39
2023-03-13T18:34:27.696Z,100095.95
2023-03-13T18:36:55.979Z,100093.83
2023-03-13T18:39:25.403Z,100090.98
2023-03-13T18:41:53.515Z,100089.59
2023-03-13T18:44:23.055Z,100086.49
2023-03-13T18:46:52.101Z,100085.08
2023-03-13T18:49:23.598Z,100085.59
2023-03-13T18:51:53.328Z,100086.67
2023-03-13T18:54:21.755Z,100086.70
2023-03-13T18:56:50.979Z,100083.79
2023-03-13T18:59:20.883Z,100083.82
2023-03-13T19:01:49.192Z,100083.67
2023-03-13T19:04:18.209Z,100076.73
2023-03-13T19:06:50.982Z,100076.10
2023-03-13T19:09:42.138Z,100075.17
2023-03-13T19:12:10.208Z,100076.11
2023-03-13T19:14:38.965Z,100076.75
2023-03-13T19:17:07.492Z,100081.11
2023-03-13T19:19:35.677Z,100084.51
2023-03-13T19:22:05.515Z,100083.83
2023-03-13T19:24:34.111Z,100081.60
2023-03-13T19:27:13.080Z,100076.36
2023-03-13T19:29:42.099Z,100074.70
2023-03-13T19:32:17.173Z,100070.86
2023-03-13T19:34:45.293Z,100075.47
2023-03-13T19:37:14.437Z,100080.89
2023-03-13T19:39:42.773Z,100078.80
2023-03-13T19:42:11.736Z,100077.87
2023-03-13T19:44:44.664Z,100077.25
2023-03-13T19:47:14.708Z,100079.45
2023-03-13T19:49:43.120Z,100077.23
2023-03-13T19:52:11.966Z,100073.86
2023-03-13T19:54:40.040Z,100076.51
2023-03-13T19:57:11.385Z,100069.57
2023-03-13T19:59:40.254Z,100065.28
2023-03-13T20:02:11.574Z,100064.96
2023-03-13T20:04:45.308Z,100064.93
2023-03-13T20:07:13.638Z,100060.79
2023-03-13T20:09:46.726Z,100058.79
2023-03-13T20:12:17.330Z,100063.09
2023-03-13T20:14:45.561Z,100059.23
2023-03-13T20:17:13.972Z,100056.77
2023-03-13T20:19:41.954Z,100056.92
2023-03-13T20:22:10.387Z,100057.44
2023-03-13T20:24:38.981Z,100051.23
2023-03-13T20:27:07.828Z,100050.10
2023-03-13T20:29:37.691Z,100049.19
2023-03-13T20:32:06.049Z,100037.99
2023-03-13T20:34:36.630Z,100045.31
2023-03-13T20:37:04.875Z,100048.85
2023-03-13T20:39:37.532Z,100047.73
2023-03-13T20:42:10.648Z,100043.66
2023-03-13T20:47:35.811Z,100058.37
2023-03-13T20:50:04.267Z,100048.56
2023-03-13T20:52:33.240Z,100047.33
2023-03-13T20:55:01.229Z,100046.63
2023-03-13T20:57:32.701Z,100044.58
2023-03-13T21:00:01.151Z,100049.79
2023-03-13T21:02:29.413Z,100052.46
2023-03-13T21:04:57.917Z,100054.77
2023-03-13T21:07:26.115Z,100050.59
2023-03-13T21:09:54.193Z,100052.02
2023-03-13T21:12:23.081Z,100052.88
2023-03-13T21:14:55.098Z,100054.77
2023-03-13T21:17:29.206Z,100057.95
2023-03-13T21:19:58.236Z,100052.17
2023-03-13T21:22:28.521Z,100049.70
2023-03-13T21:24:57.107Z,100054.04
2023-03-13T21:27:25.161Z,100052.05
2023-03-13T21:29:54.683Z,100049.44
2023-03-13T21:32:23.329Z,100050.48
2023-03-13T21:34:51.668Z,100049.14
2023-03-13T21:37:20.038Z,100052.36
2023-03-13T21:39:52.194Z,100054.14
2023-03-13T21:42:20.508Z,100049.52
2023-03-13T21:44:48.871Z,100055.59
2023-03-13T21:47:26.770Z,100051.66
2023-03-13T21:49:54.777Z,100052.01
2023-03-13T21:52:23.396Z,100050.64
2023-03-13T21:54:52.311Z,100049.73
2023-03-13T21:57:20.600Z,100044.91
2023-03-13T22:00:00.622Z,100046.61
2023-03-13T22:02:29.472Z,100047.43
2023-03-13T22:04:57.581Z,100051.26
2023-03-13T22:07:25.810Z,100058.95
2023-03-13T22:09:54.014Z,100056.83
2023-03-13T22:12:23.723Z,100058.69
2023-03-13T22:14:53.870Z,100059.05
2023-03-13T22:17:28.076Z,100053.42
2023-03-13T22:19:56.079Z,100055.50
2023-03-13T22:22:25.662Z,100050.60
2023-03-13T22:24:54.450Z,100047.63
2023-03-13T22:27:24.281Z,100046.66
2023-03-13T22:29:52.742Z,100047.33
2023-03-13T22:32:21.133Z,100050.26
2023-03-13T22:34:49.745Z,100048.14
2023-03-13T22:37:22.339Z,100047.36
2023-03-13T22:39:54.036Z,100045.95
2023-03-13T22:42:22.701Z,100041.34
2023-03-13T22:44:50.877Z,100044.54
2023-03-13T22:47:19.168Z,100038.08
2023-03-13T22:49:47.038Z,100036.95
2023-03-13T22:52:15.047Z,100031.59
2023-03-13T22:54:42.976Z,100037.08
2023-03-13T22:57:11.072Z,100026.98
2023-03-13T22:59:39.154Z,100025.48
2023-03-13T23:02:08.527Z,100029.34
2023-03-13T23:04:36.615Z,100019.23
2023-03-13T23:07:05.940Z,100021.19
2023-03-13T23:09:34.496Z,100014.04
2023-03-13T23:12:02.705Z,100013.27
2023-03-13T23:14:32.409Z,100014.63
2023-03-13T23:17:00.776Z,100016.83
2023-03-13T23:19:28.989Z,100013.80
2023-03-13T23:21:56.935Z,100013.23
2023-03-13T23:24:25.045Z,100015.02
2023-03-13T23:26:58.031Z,100013.80
2023-03-13T23:29:26.051Z,100011.77
2023-03-13T23:31:54.803Z,100009.65
2023-03-13T23:34:22.906Z,100000.63
2023-03-13T23:36:51.057Z,100000.35
2023-03-13T23:39:23.283Z,100002.81
2023-03-13T23:41:51.384Z,99998.34
2023-03-13T23:44:19.526Z,100001.69
2023-03-13T23:46:47.704Z,100005.66
2023-03-13T23:49:15.913Z,100008.83
2023-03-13T23:51:47.265Z,99999.74
2023-03-13T23:54:16.970Z,99999.30
2023-03-13T23:56:45.138Z,99994.05
2023-03-13T23:59:13.216Z,99996.46
